Time;durP1;ratioP1;P1;durP2;ratioP2;P2;SDS_P1;SDS_P2;PMS_P1;PMS_P2;Temp;Humidity;BMP_temperature;BMP_pressure;BME280_temperature;BME280_humidity;BME280_pressure;Samples;Min_cycle;Max_cycle;Signal;HPM_P1;HPM_P2
2022/02/17 00:01:10;;;;;;;30.20;15.60;;;;;;;5.69;67.33;97385.33;105837;1277;99355;-74
2022/02/17 00:03:41;;;;;;;30.80;14.50;;;;;;;5.72;67.08;97382.48;105878;1277;97810;-74
2022/02/17 00:06:11;;;;;;;33.80;16.20;;;;;;;5.74;67.05;97378.92;105849;1277;113438;-73
2022/02/17 00:08:39;;;;;;;31.60;16.60;;;;;;;5.74;67.03;97380.20;105816;1278;99228;-73
2022/02/17 00:11:07;;;;;;;31.20;16.80;;;;;;;5.73;66.92;97376.41;105841;1277;108196;-76
2022/02/17 00:13:35;;;;;;;31.20;17.00;;;;;;;5.72;67.06;97374.52;105937;1276;99195;-71
2022/02/17 00:16:05;;;;;;;31.90;17.00;;;;;;;5.72;67.10;97374.04;105968;1276;99303;-72
2022/02/17 00:18:33;;;;;;;35.50;19.10;;;;;;;5.73;67.04;97368.64;105995;1277;112760;-74
2022/02/17 00:21:01;;;;;;;32.90;17.20;;;;;;;5.72;67.11;97354.53;105963;1277;99243;-75
2022/02/17 00:23:29;;;;;;;32.60;16.60;;;;;;;5.71;67.00;97344.55;105904;1276;106355;-75
2022/02/17 00:25:56;;;;;;;33.30;16.70;;;;;;;5.71;67.06;97331.75;106004;1276;98450;-74
2022/02/17 00:28:24;;;;;;;31.80;17.10;;;;;;;5.69;67.15;97326.08;106035;1277;99231;-76
2022/02/17 00:30:52;;;;;;;30.60;15.80;;;;;;;5.71;67.04;97325.05;105987;1277;113381;-75
2022/02/17 00:33:20;;;;;;;30.60;17.60;;;;;;;5.72;67.12;97311.23;106048;1276;97168;-73
2022/02/17 00:35:51;;;;;;;30.70;15.20;;;;;;;5.71;67.07;97304.99;106013;1276;107245;-72
2022/02/17 00:38:21;;;;;;;30.00;16.80;;;;;;;5.71;67.07;97303.77;105936;1277;99227;-73
2022/02/17 00:40:49;;;;;;;31.20;16.70;;;;;;;5.71;66.99;97300.25;105992;1277;99888;-74
2022/02/17 00:43:17;;;;;;;29.60;15.30;;;;;;;5.71;66.92;97288.56;106024;1277;112299;-75
2022/02/17 00:45:45;;;;;;;30.90;15.30;;;;;;;5.71;66.99;97276.30;106009;1276;99879;-74
2022/02/17 00:48:15;;;;;;;31.90;17.50;;;;;;;5.72;66.96;97282.92;106078;1276;107892;-73
2022/02/17 00:50:43;;;;;;;29.90;16.10;;;;;;;5.72;66.90;97279.59;106039;1276;99361;-73
2022/02/17 00:53:11;;;;;;;29.60;15.20;;;;;;;5.73;66.94;97270.89;106100;1276;99226;-74
2022/02/17 00:55:39;;;;;;;30.60;16.60;;;;;;;5.74;66.85;97259.04;106006;1276;112742;-74
2022/02/17 00:58:09;;;;;;;29.80;16.40;;;;;;;5.72;66.91;97242.08;106110;1277;99208;-74
2022/02/17 01:00:37;;;;;;;31.20;16.00;;;;;;;5.73;66.79;97242.20;106049;1277;107481;-74
2022/02/17 01:03:05;;;;;;;30.60;16.00;;;;;;;5.74;66.92;97226.28;106079;1276;99250;-73
2022/02/17 01:05:38;;;;;;;30.90;15.10;;;;;;;5.76;66.82;97217.85;106034;1277;96653;-73
2022/02/17 01:08:08;;;;;;;28.00;14.80;;;;;;;5.77;66.72;97217.55;105921;1277;112795;-73
2022/02/17 01:10:38;;;;;;;30.60;15.30;;;;;;;5.78;66.71;97220.34;105954;1277;99186;-72
2022/02/17 01:13:06;;;;;;;29.80;16.50;;;;;;;5.79;66.75;97223.42;106013;1277;107794;-70
2022/02/17 01:15:34;;;;;;;29.70;16.50;;;;;;;5.78;66.82;97209.95;106009;1277;99212;-74
2022/02/17 01:18:02;;;;;;;30.00;15.20;;;;;;;5.78;66.73;97199.59;106054;1277;96623;-75
2022/02/17 01:20:33;;;;;;;26.90;14.70;;;;;;;5.81;66.72;97178.76;106036;1276;112696;-74
2022/02/17 01:23:03;;;;;;;27.50;14.00;;;;;;;5.80;66.62;97168.95;106026;1276;99256;-75
2022/02/17 01:25:32;;;;;;;28.80;15.30;;;;;;;5.81;66.81;97158.48;106033;1277;107720;-75
2022/02/17 01:28:04;;;;;;;30.00;15.50;;;;;;;5.81;66.79;97163.12;106014;1277;99316;-74
2022/02/17 01:30:33;;;;;;;28.60;15.40;;;;;;;5.81;66.71;97150.60;106081;1277;99260;-74
2022/02/17 01:33:00;;;;;;;26.90;13.70;;;;;;;5.80;66.55;97149.23;105998;1276;112917;-72
2022/02/17 01:35:28;;;;;;;29.30;15.70;;;;;;;5.81;66.69;97136.88;106071;1277;99222;-77
2022/02/17 01:37:56;;;;;;;28.70;14.80;;;;;;;5.81;66.63;97124.02;106031;1277;107694;-76
2022/02/17 01:40:24;;;;;;;26.20;14.10;;;;;;;5.84;66.69;97102.90;105972;1276;99166;-75
2022/02/17 01:42:57;;;;;;;27.50;14.30;;;;;;;5.86;66.71;97094.28;105999;1277;99236;-75
2022/02/17 01:45:25;;;;;;;27.10;14.50;;;;;;;5.86;66.63;97070.21;105909;1279;114239;-75
2022/02/17 01:47:53;;;;;;;27.90;15.30;;;;;;;5.86;66.64;97047.83;105989;1276;97199;-74
2022/02/17 01:50:20;;;;;;;25.30;13.80;;;;;;;5.87;66.70;97055.86;105979;1276;107346;-75
2022/02/17 01:52:48;;;;;;;25.60;13.40;;;;;;;5.87;66.66;97044.20;105990;1276;99228;-76
2022/02/17 01:55:16;;;;;;;27.20;14.30;;;;;;;5.88;66.55;97025.98;105992;1277;99801;-75
2022/02/17 01:57:44;;;;;;;25.70;12.90;;;;;;;5.90;66.54;97006.50;105989;1277;112767;-73
2022/02/17 02:00:12;;;;;;;27.20;13.50;;;;;;;5.92;66.52;97010.15;106001;1276;99255;-72
2022/02/17 02:02:46;;;;;;;27.30;14.20;;;;;;;5.95;66.52;97010.95;105959;1277;107685;-71
2022/02/17 02:05:16;;;;;;;26.80;13.00;;;;;;;5.98;66.50;97023.77;105958;1277;96647;-74
2022/02/17 02:07:44;;;;;;;25.50;12.80;;;;;;;6.00;66.42;97043.85;106016;1277;99302;-73
2022/02/17 02:10:14;;;;;;;24.30;11.90;;;;;;;6.03;66.50;97034.99;106006;1277;112751;-74
2022/02/17 02:12:43;;;;;;;25.60;12.30;;;;;;;6.07;66.44;97028.67;106039;1277;99310;-75
2022/02/17 02:15:14;;;;;;;24.00;12.50;;;;;;;6.07;66.23;97013.51;105997;1277;108034;-73
2022/02/17 02:17:47;;;;;;;25.40;12.50;;;;;;;6.09;66.44;97030.04;105992;1277;99396;-71
2022/02/17 02:20:20;;;;;;;25.20;11.80;;;;;;;6.09;66.39;97046.02;105995;1277;99339;-73
2022/02/17 02:22:48;;;;;;;24.30;12.20;;;;;;;6.12;66.33;97062.34;105954;1277;112731;-74
2022/02/17 02:25:16;;;;;;;24.60;12.80;;;;;;;6.15;66.09;97058.41;106026;1276;98467;-72
2022/02/17 02:27:44;;;;;;;24.60;11.50;;;;;;;6.15;66.35;97052.60;105927;1278;107718;-73
2022/02/17 02:30:12;;;;;;;25.20;12.90;;;;;;;6.17;66.35;97039.40;105978;1277;99319;-74
2022/02/17 02:32:40;;;;;;;24.00;12.00;;;;;;;6.18;66.27;97031.17;105933;1276;96529;-72
2022/02/17 02:35:08;;;;;;;26.50;11.50;;;;;;;6.18;66.37;97027.34;105994;1276;112891;-73
2022/02/17 02:37:36;;;;;;;23.00;10.80;;;;;;;6.22;66.20;97028.05;106015;1276;99221;-73
2022/02/17 02:40:08;;;;;;;23.80;12.10;;;;;;;6.24;66.29;97036.46;105931;1276;108114;-74
2022/02/17 02:42:36;;;;;;;24.20;11.40;;;;;;;6.27;66.35;97049.86;105968;1277;99215;-74
2022/02/17 02:45:07;;;;;;;23.40;11.40;;;;;;;6.28;66.11;97033.48;105973;1276;99351;-73
2022/02/17 02:47:35;;;;;;;23.30;10.90;;;;;;;6.30;66.30;97020.09;105956;1276;112729;-73
2022/02/17 02:50:03;;;;;;;24.50;12.10;;;;;;;6.32;66.34;97015.17;105968;1276;97234;-72
2022/02/17 02:52:35;;;;;;;25.80;11.50;;;;;;;6.33;66.45;97011.76;106018;1276;107432;-74
2022/02/17 02:55:03;;;;;;;25.10;12.50;;;;;;;6.33;66.34;97004.04;105992;1276;99314;-74
2022/02/17 02:57:31;;;;;;;24.30;11.50;;;;;;;6.33;66.29;96982.02;105967;1276;99225;-72
2022/02/17 02:59:59;;;;;;;24.80;12.50;;;;;;;6.34;66.50;96975.58;105980;1276;112973;-72
2022/02/17 03:02:27;;;;;;;22.60;11.80;;;;;;;6.33;66.48;96963.54;106006;1276;99122;-72
2022/02/17 03:04:54;;;;;;;25.00;12.60;;;;;;;6.35;66.18;96966.68;105971;1276;107509;-74
2022/02/17 03:07:22;;;;;;;24.60;11.80;;;;;;;6.33;66.42;96972.88;105902;1276;97885;-76
2022/02/17 03:09:53;;;;;;;23.20;10.20;;;;;;;6.32;66.45;96970.98;105996;1277;99314;-74
2022/02/17 03:12:21;;;;;;;23.10;11.50;;;;;;;6.31;66.40;96956.86;105977;1276;112909;-73
2022/02/17 03:14:49;;;;;;;21.70;10.20;;;;;;;6.28;66.24;96955.02;105985;1277;99240;-74
2022/02/17 03:17:16;;;;;;;24.60;12.10;;;;;;;6.28;66.61;96951.66;105929;1276;107834;-73
2022/02/17 03:19:47;;;;;;;25.20;12.30;;;;;;;6.26;66.54;96954.09;105939;1276;99238;-73
2022/02/17 03:22:15;;;;;;;24.70;12.30;;;;;;;6.25;66.49;96945.61;105945;1276;99195;-73
2022/02/17 03:24:42;;;;;;;24.80;12.30;;;;;;;6.21;66.70;96931.34;105978;1276;112682;-74
2022/02/17 03:27:10;;;;;;;24.40;12.60;;;;;;;6.21;66.57;96919.53;105943;1277;99095;-73
2022/02/17 03:29:38;;;;;;;23.40;10.80;;;;;;;6.20;66.80;96918.59;105925;1276;107780;-73
2022/02/17 03:32:08;;;;;;;25.80;12.90;;;;;;;6.17;66.74;96906.71;105921;1276;99177;-72
2022/02/17 03:34:37;;;;;;;24.60;12.30;;;;;;;6.14;66.86;96908.58;105816;1276;197106;-73
2022/02/17 03:37:05;;;;;;;25.70;12.00;;;;;;;6.11;67.07;96909.65;105921;1276;112773;-72
2022/02/17 03:39:35;;;;;;;24.30;12.60;;;;;;;6.09;66.90;96907.58;105990;1276;99280;-72
2022/02/17 03:42:06;;;;;;;23.70;12.20;;;;;;;6.09;67.07;96907.60;105937;1276;107698;-73
2022/02/17 03:44:36;;;;;;;25.20;12.80;;;;;;;6.08;67.09;96890.89;105910;1276;97393;-75
2022/02/17 03:47:05;;;;;;;26.50;11.20;;;;;;;6.09;67.53;96865.84;105958;1276;99313;-73
2022/02/17 03:49:32;;;;;;;24.90;13.20;;;;;;;6.07;67.74;96855.31;106000;1276;112678;-74
2022/02/17 03:52:04;;;;;;;25.40;11.60;;;;;;;5.97;68.23;96835.05;105938;1276;99285;-73
2022/02/17 03:54:32;;;;;;;25.80;12.80;;;;;;;5.93;68.68;96818.88;106032;1277;107422;-71
2022/02/17 03:57:03;;;;;;;23.40;10.90;;;;;;;5.86;68.86;96819.38;106012;1276;99374;-72
2022/02/17 03:59:31;;;;;;;25.90;13.30;;;;;;;5.84;69.05;96801.09;105988;1276;99192;-72
2022/02/17 04:01:59;;;;;;;26.10;12.70;;;;;;;5.81;69.19;96798.80;106014;1276;112605;-73
2022/02/17 04:04:30;;;;;;;24.10;12.10;;;;;;;5.79;69.33;96808.14;106035;1277;96692;-70
2022/02/17 04:07:00;;;;;;;26.80;13.20;;;;;;;5.78;69.42;96807.73;105837;1279;107760;-73
2022/02/17 04:09:28;;;;;;;25.60;11.30;;;;;;;5.76;69.42;96818.94;105900;1277;96585;-72
2022/02/17 04:11:56;;;;;;;25.40;12.20;;;;;;;5.78;69.89;96826.16;106034;1277;100360;-74
2022/02/17 04:14:24;;;;;;;27.10;13.60;;;;;;;5.77;69.79;96828.08;105896;1276;112719;-73
2022/02/17 04:16:52;;;;;;;24.60;12.30;;;;;;;5.76;70.00;96826.19;106027;1276;99308;-73
2022/02/17 04:19:20;;;;;;;24.50;11.40;;;;;;;5.78;70.07;96826.91;105992;1276;107684;-72
2022/02/17 04:21:48;;;;;;;27.70;14.40;;;;;;;5.79;70.26;96822.25;105903;1277;99197;-73
2022/02/17 04:24:15;;;;;;;25.70;12.50;;;;;;;5.77;70.31;96801.11;105959;1276;99281;-74
2022/02/17 04:26:43;;;;;;;24.80;11.30;;;;;;;5.79;70.16;96786.73;105896;1277;112839;-74
2022/02/17 04:29:11;;;;;;;25.60;12.70;;;;;;;5.80;70.47;96781.70;105949;1277;99215;-71
2022/02/17 04:31:39;;;;;;;22.80;12.10;;;;;;;5.80;70.25;96790.31;105898;1276;106144;-73
2022/02/17 04:34:07;;;;;;;24.00;12.00;;;;;;;5.82;70.35;96785.35;105937;1276;97270;-73
2022/02/17 04:36:35;;;;;;;25.00;12.60;;;;;;;5.84;70.27;96775.69;106020;1276;99284;-75
2022/02/17 04:39:05;;;;;;;29.10;12.70;;;;;;;5.83;70.70;96742.89;105987;1276;112797;-73
2022/02/17 04:44:19;;;;;;;25.60;12.50;;;;;;;5.75;70.86;96718.09;105941;1276;107700;-73
2022/02/17 04:46:47;;;;;;;23.90;11.70;;;;;;;5.71;71.12;96712.86;105859;1278;99116;-71
2022/02/17 04:49:15;;;;;;;25.60;12.10;;;;;;;5.68;71.19;96708.94;105924;1276;99251;-73
2022/02/17 04:51:46;;;;;;;25.50;12.80;;;;;;;5.67;71.47;96717.63;105925;1276;112742;-72
2022/02/17 04:54:14;;;;;;;24.00;11.80;;;;;;;5.65;71.83;96716.52;105940;1276;97251;-71
2022/02/17 04:56:41;;;;;;;23.30;11.90;;;;;;;5.69;72.29;96705.83;105994;1277;107760;-72
2022/02/17 04:59:09;;;;;;;25.80;13.10;;;;;;;5.65;72.22;96701.93;105886;1277;99317;-72
2022/02/17 05:01:38;;;;;;;24.40;11.90;;;;;;;5.62;72.30;96696.40;105906;1276;99212;-74
2022/02/17 05:04:06;;;;;;;25.20;12.80;;;;;;;5.60;72.29;96672.34;105854;1276;112823;-74
2022/02/17 05:06:34;;;;;;;24.10;11.60;;;;;;;5.61;72.34;96659.08;105901;1276;99689;-73
2022/02/17 05:09:04;;;;;;;24.80;11.10;;;;;;;5.61;72.64;96661.67;105925;1276;107680;-76
2022/02/17 05:11:33;;;;;;;23.40;10.60;;;;;;;5.63;72.77;96665.58;105936;1276;99310;-75
2022/02/17 05:14:01;;;;;;;22.30;9.70;;;;;;;5.62;72.91;96665.85;105930;1276;100451;-74
2022/02/17 05:16:30;;;;;;;23.20;10.60;;;;;;;5.64;72.93;96674.78;105956;1276;112862;-75
2022/02/17 05:19:00;;;;;;;23.10;11.70;;;;;;;5.67;72.94;96674.90;105920;1277;98973;-73
2022/02/17 05:21:30;;;;;;;22.90;9.50;;;;;;;5.65;72.80;96677.48;105885;1277;106665;-76
2022/02/17 05:24:02;;;;;;;19.10;8.00;;;;;;;5.68;72.85;96677.27;105911;1276;99208;-76
2022/02/17 05:26:30;;;;;;;23.10;10.20;;;;;;;5.71;73.02;96675.74;105974;1276;96660;-75
2022/02/17 05:28:58;;;;;;;19.80;9.40;;;;;;;5.69;73.05;96671.77;105926;1276;112878;-74
2022/02/17 05:31:29;;;;;;;21.50;9.70;;;;;;;5.67;73.34;96662.38;105928;1276;99246;-77
2022/02/17 05:33:59;;;;;;;21.20;9.30;;;;;;;5.63;73.44;96670.11;105871;1277;107768;-75
2022/02/17 05:36:27;;;;;;;18.40;9.30;;;;;;;5.57;73.61;96665.89;105977;1277;99112;-75
2022/02/17 05:38:56;;;;;;;25.80;10.80;;;;;;;5.53;73.80;96660.13;105905;1277;96648;-75
2022/02/17 05:41:24;;;;;;;22.90;9.30;;;;;;;5.51;73.75;96650.30;105901;1276;112781;-76
2022/02/17 05:43:52;;;;;;;20.80;9.50;;;;;;;5.50;74.04;96653.52;105950;1276;99070;-74
2022/02/17 05:46:20;;;;;;;20.60;9.00;;;;;;;5.48;73.82;96657.78;105935;1276;107728;-75
2022/02/17 05:48:50;;;;;;;20.40;9.10;;;;;;;5.51;74.01;96671.16;105903;1276;97799;-72
2022/02/17 05:51:21;;;;;;;22.50;9.60;;;;;;;5.53;73.90;96649.28;105959;1276;99244;-72
2022/02/17 05:53:49;;;;;;;20.30;9.20;;;;;;;5.52;73.89;96639.99;105972;1276;112747;-75
2022/02/17 05:56:16;;;;;;;17.70;7.80;;;;;;;5.52;73.93;96646.85;105838;1279;99241;-77
2022/02/17 05:58:44;;;;;;;18.80;8.50;;;;;;;5.56;74.06;96641.08;105836;1276;107805;-77
2022/02/17 06:01:12;;;;;;;20.00;8.30;;;;;;;5.59;74.07;96634.28;105915;1276;99339;-76
2022/02/17 06:03:40;;;;;;;20.50;9.60;;;;;;;5.60;73.99;96628.37;106012;1276;100005;-73
2022/02/17 06:06:08;;;;;;;18.30;7.90;;;;;;;5.62;73.96;96624.20;105953;1276;112355;-76
2022/02/17 06:08:38;;;;;;;19.90;8.80;;;;;;;5.66;73.85;96610.97;106036;1276;99201;-76
2022/02/17 06:11:06;;;;;;;16.10;6.70;;;;;;;5.67;73.79;96611.38;105996;1276;107618;-75
2022/02/17 06:13:34;;;;;;;17.10;7.50;;;;;;;5.70;73.71;96604.09;106014;1276;99338;-70
2022/02/17 06:16:05;;;;;;;18.20;8.30;;;;;;;5.75;73.50;96621.21;105861;1276;99243;-73
2022/02/17 06:18:33;;;;;;;18.90;8.40;;;;;;;5.78;73.51;96632.34;105935;1276;112714;-72
2022/02/17 06:21:00;;;;;;;18.70;7.90;;;;;;;5.80;73.27;96628.64;105932;1276;99310;-71
2022/02/17 06:23:28;;;;;;;18.40;8.10;;;;;;;5.86;73.32;96614.27;105875;1276;107707;-74
2022/02/17 06:25:59;;;;;;;17.40;7.70;;;;;;;5.89;73.12;96602.33;105876;1277;99291;-75
2022/02/17 06:28:27;;;;;;;19.10;8.40;;;;;;;5.93;73.14;96625.22;105914;1277;99372;-77
2022/02/17 06:30:59;;;;;;;18.30;8.10;;;;;;;5.95;72.96;96614.47;105875;1276;112748;-76
2022/02/17 06:33:31;;;;;;;18.90;8.50;;;;;;;5.95;72.91;96607.02;105894;1276;99244;-78
2022/02/17 06:36:01;;;;;;;20.10;9.20;;;;;;;5.99;72.72;96617.80;105967;1276;107797;-78
2022/02/17 06:38:30;;;;;;;19.30;8.30;;;;;;;6.03;72.83;96602.65;105882;1276;99314;-76
2022/02/17 06:41:00;;;;;;;17.10;8.00;;;;;;;6.03;72.95;96587.77;105895;1276;99246;-77
2022/02/17 06:43:28;;;;;;;19.60;9.10;;;;;;;6.03;73.15;96589.18;105874;1276;112882;-76
2022/02/17 06:45:56;;;;;;;19.20;8.30;;;;;;;6.02;73.16;96573.40;105908;1276;99174;-75
2022/02/17 06:48:25;;;;;;;20.30;9.30;;;;;;;6.03;73.10;96582.27;105916;1276;107672;-75
2022/02/17 06:50:53;;;;;;;19.90;8.80;;;;;;;6.04;73.11;96578.84;105895;1276;99256;-76
2022/02/17 06:53:21;;;;;;;23.00;9.70;;;;;;;6.03;73.22;96569.92;105904;1276;99256;-76
2022/02/17 06:55:49;;;;;;;18.40;8.00;;;;;;;6.08;73.22;96574.22;105970;1276;112734;-76
2022/02/17 06:58:17;;;;;;;20.80;9.10;;;;;;;6.10;73.28;96569.30;105983;1276;99297;-76
2022/02/17 07:00:45;;;;;;;20.20;9.10;;;;;;;6.14;73.39;96574.08;106058;1276;108011;-76
2022/02/17 07:03:13;;;;;;;19.60;9.30;;;;;;;6.18;73.27;96566.09;106044;1276;96635;-77
2022/02/17 07:05:44;;;;;;;20.90;10.10;;;;;;;6.18;73.18;96553.55;106044;1276;96686;-77
2022/02/17 07:08:12;;;;;;;18.80;8.70;;;;;;;6.23;73.32;96537.09;106053;1276;112781;-73
2022/02/17 07:10:54;;;;;;;17.90;8.10;;;;;;;6.25;73.37;96524.93;105867;1276;100144;-75
2022/02/17 07:13:28;;;;;;;18.10;8.30;;;;;;;6.25;73.17;96524.43;105867;1276;108061;-75
2022/02/17 07:15:59;;;;;;;18.70;8.30;;;;;;;6.29;73.42;96525.27;105887;1276;99290;-74
2022/02/17 07:18:30;;;;;;;19.10;8.70;;;;;;;6.35;73.29;96506.45;105962;1277;96593;-75
2022/02/17 07:21:00;;;;;;;16.60;7.60;;;;;;;6.35;73.58;96499.86;105940;1276;113596;-76
2022/02/17 07:23:29;;;;;;;21.10;9.10;;;;;;;6.39;73.44;96492.84;105921;1276;99220;-74
2022/02/17 07:25:59;;;;;;;19.90;8.40;;;;;;;6.41;73.38;96485.07;105857;1276;107264;-77
2022/02/17 07:28:27;;;;;;;19.60;8.30;;;;;;;6.45;73.56;96479.73;105915;1277;99377;-75
2022/02/17 07:30:56;;;;;;;18.60;7.60;;;;;;;6.47;73.68;96486.42;105907;1276;96641;-77
2022/02/17 07:33:26;;;;;;;17.50;7.80;;;;;;;6.48;73.39;96471.55;105878;1276;113531;-76
2022/02/17 07:35:54;;;;;;;19.50;8.00;;;;;;;6.49;73.52;96461.02;105908;1277;97323;-76
2022/02/17 07:38:42;;;;;;;17.60;7.60;;;;;;;6.50;73.59;96452.48;105873;1277;107770;-75
2022/02/17 07:41:15;;;;;;;19.20;8.70;;;;;;;6.53;73.59;96442.17;105957;1279;99219;-74
2022/02/17 07:43:46;;;;;;;19.00;8.00;;;;;;;6.54;73.63;96445.55;105908;1276;99310;-76
2022/02/17 07:46:20;;;;;;;18.00;8.30;;;;;;;6.59;73.68;96440.02;105873;1276;112758;-74
2022/02/17 07:48:50;;;;;;;19.60;8.50;;;;;;;6.61;73.52;96431.31;106016;1276;96998;-76
2022/02/17 07:51:20;;;;;;;18.80;8.20;;;;;;;6.60;73.89;96424.21;105973;1276;107757;-76
2022/02/17 07:53:48;;;;;;;17.10;7.50;;;;;;;6.63;73.81;96415.98;106016;1276;100436;-76
2022/02/17 07:56:16;;;;;;;18.30;7.90;;;;;;;6.66;73.78;96404.32;106043;1276;99237;-76
2022/02/17 07:58:49;;;;;;;18.30;8.20;;;;;;;6.65;73.66;96385.20;106017;1276;115698;-76
2022/02/17 08:01:20;;;;;;;17.60;7.50;;;;;;;6.62;73.92;96383.38;106036;1276;99359;-77
2022/02/17 08:03:51;;;;;;;18.80;8.40;;;;;;;6.58;74.01;96384.08;105990;1276;107942;-76
2022/02/17 08:06:22;;;;;;;16.20;7.20;;;;;;;6.57;74.00;96387.38;105916;1276;99304;-76
2022/02/17 08:08:57;;;;;;;20.90;8.00;;;;;;;6.62;74.31;96382.69;106041;1276;99372;-79
2022/02/17 08:11:27;;;;;;;16.60;7.70;;;;;;;6.68;74.07;96378.55;106006;1276;113466;-75
2022/02/17 08:13:58;;;;;;;18.60;8.20;;;;;;;6.70;74.19;96352.62;105984;1277;99373;-75
2022/02/17 08:16:28;;;;;;;18.30;8.30;;;;;;;6.70;74.19;96357.55;105966;1276;107789;-77
2022/02/17 08:18:56;;;;;;;15.80;7.40;;;;;;;6.68;74.37;96341.77;105990;1278;99320;-75
2022/02/17 08:21:47;;;;;;;19.80;7.90;;;;;;;6.64;74.23;96321.53;106052;1277;96538;-75
2022/02/17 08:24:16;;;;;;;17.70;7.90;;;;;;;6.63;74.32;96303.36;106035;1277;112677;-76
2022/02/17 08:26:46;;;;;;;19.00;8.50;;;;;;;6.61;74.24;96292.09;105895;1276;99227;-77
2022/02/17 08:29:14;;;;;;;19.30;8.90;;;;;;;6.61;74.40;96276.38;105884;1276;107785;-77
2022/02/17 08:31:43;;;;;;;18.30;8.40;;;;;;;6.67;74.56;96266.48;105896;1276;99328;-78
2022/02/17 08:34:13;;;;;;;19.70;8.60;;;;;;;6.75;74.45;96262.31;105887;1276;97576;-77
2022/02/17 08:36:44;;;;;;;17.80;8.10;;;;;;;6.79;74.79;96239.52;105888;1276;114561;-77
2022/02/17 08:39:18;;;;;;;15.70;7.10;;;;;;;6.82;74.77;96235.65;105892;1276;96734;-76
2022/02/17 08:41:46;;;;;;;18.80;8.60;;;;;;;6.97;74.72;96229.07;105871;1276;107788;-77
2022/02/17 08:44:16;;;;;;;17.50;7.40;;;;;;;7.09;74.57;96219.40;105900;1276;99315;-77
2022/02/17 08:46:46;;;;;;;17.10;7.30;;;;;;;7.15;74.65;96210.11;105891;1276;96520;-77
2022/02/17 08:49:19;;;;;;;14.60;6.50;;;;;;;7.22;74.40;96211.15;105860;1276;112835;-77
2022/02/17 08:51:46;;;;;;;15.40;6.60;;;;;;;7.26;74.54;96196.29;105924;1276;99173;-75
2022/02/17 08:54:14;;;;;;;13.10;6.10;;;;;;;7.31;74.46;96196.34;105888;1276;107725;-76
2022/02/17 08:56:48;;;;;;;;;;;;;;;7.39;74.43;96206.45;105896;1276;99959;-78
2022/02/17 08:59:15;;;;;;;10.10;4.70;;;;;;;7.42;74.27;96188.29;105917;1276;96527;-78
2022/02/17 09:01:43;;;;;;;12.80;5.90;;;;;;;7.44;73.97;96189.29;105857;1276;112816;-76
2022/02/17 09:04:14;;;;;;;14.20;5.60;;;;;;;7.46;73.98;96199.70;105895;1276;96613;-76
2022/02/17 09:06:42;;;;;;;12.50;5.80;;;;;;;7.44;73.86;96227.90;105848;1277;106740;-75
2022/02/17 09:09:10;;;;;;;16.60;6.60;;;;;;;7.39;74.04;96319.02;105869;1276;99198;-76
2022/02/17 09:11:37;;;;;;;12.50;5.00;;;;;;;7.36;73.93;96534.30;105898;1276;100004;-72
2022/02/17 09:14:06;;;;;;;14.00;3.60;;;;;;;7.11;73.45;96551.52;105859;1276;113725;-77
2022/02/17 09:16:38;;;;;;;9.40;3.60;;;;;;;6.73;73.31;96548.52;105794;1277;99346;-79
2022/02/17 09:19:06;;;;;;;9.30;3.50;;;;;;;6.47;73.50;96564.61;105901;1277;107393;-77
2022/02/17 09:21:37;;;;;;;7.10;3.00;;;;;;;6.26;73.90;96588.72;105848;1279;97725;-75
2022/02/17 09:24:05;;;;;;;9.70;3.20;;;;;;;6.08;74.43;96616.33;105915;1278;99275;-77
2022/02/17 09:26:37;;;;;;;6.20;2.40;;;;;;;5.93;74.11;96647.70;105888;1279;113000;-78
2022/02/17 09:29:09;;;;;;;5.60;2.40;;;;;;;5.85;74.39;96671.52;105855;1279;99199;-77
2022/02/17 09:31:57;;;;;;;8.50;3.10;;;;;;;5.76;73.98;96683.71;105839;1277;107841;-77
2022/02/17 09:34:26;;;;;;;6.60;2.30;;;;;;;5.70;74.06;96675.16;105776;1278;99242;-76
2022/02/17 09:36:54;;;;;;;9.30;2.40;;;;;;;5.65;74.67;96673.66;105845;1277;96645;-77
2022/02/17 09:39:22;;;;;;;7.60;2.60;;;;;;;5.60;74.81;96678.51;105823;1277;112674;-77
2022/02/17 09:41:50;;;;;;;8.60;2.70;;;;;;;5.56;74.14;96686.44;105688;1278;99401;-77
2022/02/17 09:44:23;;;;;;;6.50;2.70;;;;;;;5.53;74.41;96696.20;105784;1277;107705;-76
2022/02/17 09:46:52;;;;;;;11.20;2.40;;;;;;;5.48;74.26;96694.69;105780;1278;99353;-77
2022/02/17 09:49:24;;;;;;;2.50;1.30;;;;;;;5.42;73.99;96696.43;105837;1277;99240;-78
2022/02/17 09:51:55;;;;;;;3.00;1.50;;;;;;;5.35;73.96;96696.36;105905;1277;112741;-78
2022/02/17 09:54:26;;;;;;;4.90;1.50;;;;;;;5.27;73.96;96701.14;105864;1277;99956;-78
2022/02/17 09:56:54;;;;;;;7.80;2.10;;;;;;;5.19;74.07;96713.06;105719;1279;109530;-78
2022/02/17 09:59:24;;;;;;;4.80;1.70;;;;;;;5.13;74.16;96712.50;105834;1277;99195;-78
2022/02/17 10:02:02;;;;;;;3.90;1.40;;;;;;;5.08;74.05;96718.27;105867;1277;99238;-76
2022/02/17 10:04:35;;;;;;;3.20;1.70;;;;;;;5.02;74.15;96711.39;105809;1277;112874;-75
2022/02/17 10:07:11;;;;;;;4.40;1.40;;;;;;;4.97;74.08;96709.56;105943;1277;99208;-78
2022/02/17 10:09:45;;;;;;;3.30;1.50;;;;;;;4.91;74.05;96700.74;105757;1279;108204;-78
2022/02/17 10:12:17;;;;;;;9.20;3.00;;;;;;;4.84;74.01;96685.20;105903;1276;99260;-74
2022/02/17 10:14:59;;;;;;;6.70;2.60;;;;;;;4.78;73.85;96673.76;105859;1276;99240;-76
2022/02/17 10:17:27;;;;;;;7.50;2.10;;;;;;;4.78;73.91;96662.89;105884;1276;112952;-76
2022/02/17 10:19:55;;;;;;;4.90;1.70;;;;;;;4.79;73.80;96660.88;105910;1276;99799;-74
2022/02/17 10:22:34;;;;;;;5.00;1.80;;;;;;;4.79;74.16;96650.84;105875;1276;107646;-77
2022/02/17 10:25:05;;;;;;;3.40;1.70;;;;;;;4.75;73.84;96634.33;105859;1276;99349;-77
2022/02/17 10:27:32;;;;;;;7.20;1.90;;;;;;;4.73;73.86;96636.44;105928;1276;99209;-74
2022/02/17 10:30:19;;;;;;;4.80;1.90;;;;;;;4.72;73.77;96631.83;105930;1276;112807;-77
2022/02/17 10:33:00;;;;;;;7.40;2.60;;;;;;;4.69;73.83;96619.13;105859;1276;99243;-78
2022/02/17 10:35:29;;;;;;;7.40;2.80;;;;;;;4.67;73.87;96620.65;105934;1276;107806;-77
2022/02/17 10:38:01;;;;;;;5.10;2.20;;;;;;;4.70;73.95;96630.58;105915;1276;99249;-78
2022/02/17 10:40:34;;;;;;;7.60;2.50;;;;;;;4.76;74.03;96659.04;105974;1276;97248;-77
2022/02/17 10:43:15;;;;;;;4.10;2.10;;;;;;;4.81;73.90;96671.27;105945;1276;111781;-76
2022/02/17 10:45:50;;;;;;;7.80;2.80;;;;;;;4.84;74.04;96678.36;105918;1276;99883;-77
2022/02/17 10:48:22;;;;;;;8.90;3.10;;;;;;;4.84;74.04;96697.52;105912;1276;106765;-75
2022/02/17 10:51:16;;;;;;;10.00;3.30;;;;;;;4.84;74.14;96704.54;105781;1277;96604;-77
2022/02/17 10:53:48;;;;;;;6.70;2.30;;;;;;;4.83;74.19;96701.13;105956;1278;99281;-77
2022/02/17 10:56:24;;;;;;;5.90;2.40;;;;;;;4.82;74.26;96699.25;106033;1276;111281;-78
2022/02/17 11:00:00;;;;;;;5.70;2.50;;;;;;;4.81;74.27;96702.66;105904;1277;99319;-77
2022/02/17 11:01:59;;;;;;;8.30;2.70;;;;;;;4.80;74.46;96709.05;105903;1276;107807;-77
2022/02/17 11:04:27;;;;;;;5.60;2.40;;;;;;;4.80;74.64;96696.13;105881;1276;99284;-78
2022/02/17 11:06:58;;;;;;;7.10;3.00;;;;;;;4.79;74.54;96691.29;106017;1276;99425;-78
2022/02/17 11:09:26;;;;;;;6.40;2.70;;;;;;;4.80;74.63;96682.39;105919;1276;112779;-81
2022/02/17 11:11:57;;;;;;;8.30;2.90;;;;;;;4.81;74.60;96638.23;105957;1276;97286;-72
2022/02/17 11:14:45;;;;;;;9.50;2.90;;;;;;;4.83;75.09;96563.08;105897;1276;105922;-76
2022/02/17 11:17:15;;;;;;;6.90;2.60;;;;;;;4.78;75.00;96544.52;105859;1276;99258;-78
2022/02/17 11:19:54;;;;;;;6.30;2.40;;;;;;;4.76;75.04;96568.80;105970;1276;97420;-76
2022/02/17 11:22:23;;;;;;;7.40;2.60;;;;;;;4.78;75.41;96591.77;105869;1276;112808;-76
2022/02/17 11:24:57;;;;;;;9.30;2.90;;;;;;;4.80;75.11;96599.33;105905;1276;99189;-76
2022/02/17 11:27:25;;;;;;;9.60;3.30;;;;;;;4.90;75.06;96580.05;105911;1276;107726;-77
2022/02/17 11:29:56;;;;;;;9.20;3.00;;;;;;;5.21;75.55;96561.31;105990;1276;99316;-77
2022/02/17 11:32:26;;;;;;;8.00;2.90;;;;;;;5.36;75.41;96560.80;105998;1276;99151;-76
2022/02/17 11:34:59;;;;;;;8.60;3.10;;;;;;;5.41;75.32;96569.30;105992;1276;112769;-76